LIRQLIRP

Guest
Details From LIRQ - Firenze
To LIRP - Pisa
Flight Number -
Tags Routegen Generated
Created
Modified
Stats Distance 37 nm / 69 km
Max Altitude 100 ft / 30 m
Waypoints 5
Social Downloads 2
Likes 0
Share VATSIM

Download

Looking for another format? Having issues loading an existing format? Contact us
Advertisement - Login to hide

Notes

Departing runway 22 LIRQ. Arriving runway 3 LIRP.

Route

LIRQ +43.76_+011.12 +43.75_+010.79 +43.75_+010.47 LIRP

ID Type Via Altitude Latitude Longitude Leg Dist Tot Dist Heading (true) Name
O LIRQ APT - 0 ft / 0 m 43.80507˚ 11.19741˚ - 0 nm - -
+43.76_+011.12 LATLON - 100 ft / 30 m 43.75712˚ 11.12233˚ 4 nm 4 nm 229° / 228° -
+43.75_+010.79 LATLON - 100 ft / 30 m 43.75488˚ 10.79387˚ 14 nm 18 nm 270° / 269° -
+43.75_+010.47 LATLON - 100 ft / 30 m 43.75263˚ 10.46540˚ 14 nm 32 nm 270° / 269° -
O LIRP APT - 0 ft / 0 m 43.69465˚ 10.40548˚ 4 nm 37 nm 217° / 217° -

Altitude Profile

Advertisement - Login to hide

LIRQ

Details ICAO LIRQ (FLR)
Name Firenze
Region Italy
Timezone Europe/Rome (UTC+2.0)
Stats Elevation 142 ft / 43 m (AMSL)
Location 43.809984° 11.205118°
Runways 1
Magnetic Variation 2.924° E

METAR

LIRQ 271320Z 13007KT 100V160 9999 FEW040 30/14 Q1016

Decode

TAF

TAF LIRQ 271100Z 2712/2812 VRB05KT 9999 FEW030 BECMG 2810/2812 23010KT

Decode

Departure Runways

ID Width Length Bearing (true) Bearing (mag) Surface Threshold Offset Overrun Length
05 98 ft / 30 m 5,420 ft / 1,652 m 48.52° 45.60° Asphalt 492 ft / 150 m 0 ft / 0 m
23 98 ft / 30 m 5,420 ft / 1,652 m 228.53° 225.61° Asphalt 2,287 ft / 697 m 0 ft / 0 m

LIRP

Details ICAO LIRP (PSA)
Name PISA
Region Italy
Timezone Europe/Rome (UTC+2.0)
Stats Elevation 6 ft / 2 m (AMSL)
Location 43.683883° 10.392724°
Runways 2
Magnetic Variation 2.753° E

METAR

LIRP 271315Z 24010KT CAVOK 26/21 Q1017 NOSIG

Decode

TAF

TAF AMD TAF AMD LIRP 271330Z 2713/2812 22008KT CAVOK PROB30 TEMPO 2717/2803 5000 TSRA FEW020CB SCT030 TEMPO 2803/2806 3000 BR

Decode

Destination Runways

ID Width Length Bearing (true) Bearing (mag) Surface Threshold Offset Overrun Length
04L 141 ft / 43 m 9,158 ft / 2,791 m 36.70° 33.95° Asphalt 979 ft / 298 m 0 ft / 0 m
04R 148 ft / 45 m 9,819 ft / 2,993 m 36.72° 33.97° Asphalt 490 ft / 149 m 0 ft / 0 m
22L 148 ft / 45 m 9,819 ft / 2,993 m 216.73° 213.98° Asphalt 843 ft / 257 m 0 ft / 0 m
22R 141 ft / 43 m 9,158 ft / 2,791 m 216.72° 213.97° Asphalt 0 ft / 0 m 0 ft / 0 m

Approach Navaids

Runway Type Ident Frequency Range Bearing (true) Bearing (mag) Slope Elevation
04R Localiser IPI 109.70 MHz 18 nm / 33 km 36.76° 34.01° - 7 ft / 2 m (AMSL)
04R Glidescope IPI 109.70 MHz 10 nm / 19 km 36.72° 33.97° 3.00° 3 ft / 1 m (AMSL)

Popular Alternatives